sensor_id;sensor_type;location;lat;lon;timestamp;temperature;humidity
70366;DHT22;57787;48.216;12.396;2023-02-15T00:02:04;0.00;90.20
70366;DHT22;57787;48.216;12.396;2023-02-15T00:04:32;0.00;90.10
70366;DHT22;57787;48.216;12.396;2023-02-15T00:07:15;0.00;90.10
70366;DHT22;57787;48.216;12.396;2023-02-15T00:09:46;0.00;90.00
70366;DHT22;57787;48.216;12.396;2023-02-15T00:12:14;0.00;89.90
70366;DHT22;57787;48.216;12.396;2023-02-15T00:14:42;0.00;89.90
70366;DHT22;57787;48.216;12.396;2023-02-15T00:17:10;0.00;89.50
70366;DHT22;57787;48.216;12.396;2023-02-15T00:19:37;0.00;89.50
70366;DHT22;57787;48.216;12.396;2023-02-15T00:22:06;0.00;89.50
70366;DHT22;57787;48.216;12.396;2023-02-15T00:24:33;-0.10;89.50
70366;DHT22;57787;48.216;12.396;2023-02-15T00:27:01;-0.10;89.60
70366;DHT22;57787;48.216;12.396;2023-02-15T00:29:29;-0.10;89.70
70366;DHT22;57787;48.216;12.396;2023-02-15T00:31:57;-0.10;89.60
70366;DHT22;57787;48.216;12.396;2023-02-15T00:34:25;-0.10;89.70
70366;DHT22;57787;48.216;12.396;2023-02-15T00:36:52;-0.10;89.50
70366;DHT22;57787;48.216;12.396;2023-02-15T00:39:20;-0.10;89.60
70366;DHT22;57787;48.216;12.396;2023-02-15T00:41:48;-0.20;89.40
70366;DHT22;57787;48.216;12.396;2023-02-15T00:44:16;-0.20;89.50
70366;DHT22;57787;48.216;12.396;2023-02-15T00:46:44;-0.20;89.30
70366;DHT22;57787;48.216;12.396;2023-02-15T00:49:12;-0.20;89.40
70366;DHT22;57787;48.216;12.396;2023-02-15T00:51:40;-0.20;89.40
70366;DHT22;57787;48.216;12.396;2023-02-15T00:54:08;-0.30;89.30
70366;DHT22;57787;48.216;12.396;2023-02-15T00:56:35;-0.30;89.50
70366;DHT22;57787;48.216;12.396;2023-02-15T00:59:03;-0.30;89.50
70366;DHT22;57787;48.216;12.396;2023-02-15T01:01:31;-0.30;89.30
70366;DHT22;57787;48.216;12.396;2023-02-15T01:03:58;-0.30;89.30
70366;DHT22;57787;48.216;12.396;2023-02-15T01:06:25;-0.30;89.30
70366;DHT22;57787;48.216;12.396;2023-02-15T01:08:53;-0.40;89.20
70366;DHT22;57787;48.216;12.396;2023-02-15T01:11:22;-0.40;89.30
70366;DHT22;57787;48.216;12.396;2023-02-15T01:13:53;-0.40;89.40
70366;DHT22;57787;48.216;12.396;2023-02-15T01:16:22;-0.40;89.40
70366;DHT22;57787;48.216;12.396;2023-02-15T01:18:50;-0.40;89.40
70366;DHT22;57787;48.216;12.396;2023-02-15T01:21:18;-0.50;89.40
70366;DHT22;57787;48.216;12.396;2023-02-15T01:23:46;-0.50;89.50
70366;DHT22;57787;48.216;12.396;2023-02-15T01:26:14;-0.60;89.50
70366;DHT22;57787;48.216;12.396;2023-02-15T01:28:42;-0.60;89.80
70366;DHT22;57787;48.216;12.396;2023-02-15T01:31:10;-0.60;89.80
70366;DHT22;57787;48.216;12.396;2023-02-15T01:33:38;-0.60;89.70
70366;DHT22;57787;48.216;12.396;2023-02-15T01:36:07;-0.60;89.60
70366;DHT22;57787;48.216;12.396;2023-02-15T01:38:35;-0.60;89.50
70366;DHT22;57787;48.216;12.396;2023-02-15T01:41:02;-0.60;89.80
70366;DHT22;57787;48.216;12.396;2023-02-15T01:43:52;-0.60;89.90
70366;DHT22;57787;48.216;12.396;2023-02-15T01:46:22;-0.60;90.00
70366;DHT22;57787;48.216;12.396;2023-02-15T01:48:52;-0.60;90.00
70366;DHT22;57787;48.216;12.396;2023-02-15T01:51:21;-0.60;89.90
70366;DHT22;57787;48.216;12.396;2023-02-15T01:53:52;-0.50;89.90
70366;DHT22;57787;48.216;12.396;2023-02-15T01:56:25;-0.60;89.80
70366;DHT22;57787;48.216;12.396;2023-02-15T01:58:54;-0.60;89.70
70366;DHT22;57787;48.216;12.396;2023-02-15T02:01:25;-0.60;89.50
70366;DHT22;57787;48.216;12.396;2023-02-15T02:04:04;-0.60;89.50
70366;DHT22;57787;48.216;12.396;2023-02-15T02:06:35;-0.60;89.80
70366;DHT22;57787;48.216;12.396;2023-02-15T02:09:03;-0.60;89.80
70366;DHT22;57787;48.216;12.396;2023-02-15T02:11:31;-0.60;89.70
70366;DHT22;57787;48.216;12.396;2023-02-15T02:13:59;-0.60;89.80
70366;DHT22;57787;48.216;12.396;2023-02-15T02:21:51;-0.60;89.70
70366;DHT22;57787;48.216;12.396;2023-02-15T02:24:39;-0.60;89.90
70366;DHT22;57787;48.216;12.396;2023-02-15T02:27:21;-0.60;89.80
70366;DHT22;57787;48.216;12.396;2023-02-15T02:32:53;-0.70;89.50
70366;DHT22;57787;48.216;12.396;2023-02-15T02:38:23;-0.70;89.70
70366;DHT22;57787;48.216;12.396;2023-02-15T02:43:27;-0.70;89.70
70366;DHT22;57787;48.216;12.396;2023-02-15T02:45:58;-0.60;89.80
70366;DHT22;57787;48.216;12.396;2023-02-15T02:48:29;-0.70;89.80
70366;DHT22;57787;48.216;12.396;2023-02-15T02:50:58;-0.70;89.70
70366;DHT22;57787;48.216;12.396;2023-02-15T02:53:26;-0.60;89.60
70366;DHT22;57787;48.216;12.396;2023-02-15T02:55:58;-0.70;89.40
70366;DHT22;57787;48.216;12.396;2023-02-15T02:58:35;-0.70;89.60
70366;DHT22;57787;48.216;12.396;2023-02-15T03:01:06;-0.70;89.60
70366;DHT22;57787;48.216;12.396;2023-02-15T03:03:40;-0.70;89.50
70366;DHT22;57787;48.216;12.396;2023-02-15T03:06:13;-0.70;89.40
70366;DHT22;57787;48.216;12.396;2023-02-15T03:08:47;-0.70;89.40
70366;DHT22;57787;48.216;12.396;2023-02-15T03:11:15;-0.70;89.50
70366;DHT22;57787;48.216;12.396;2023-02-15T03:13:43;-0.70;89.50
70366;DHT22;57787;48.216;12.396;2023-02-15T03:16:12;-0.70;89.40
70366;DHT22;57787;48.216;12.396;2023-02-15T03:18:57;-0.80;89.30
70366;DHT22;57787;48.216;12.396;2023-02-15T03:21:31;-0.80;89.20
70366;DHT22;57787;48.216;12.396;2023-02-15T03:24:04;-0.80;89.20
70366;DHT22;57787;48.216;12.396;2023-02-15T03:26:35;-0.80;89.20
70366;DHT22;57787;48.216;12.396;2023-02-15T03:29:05;-0.80;89.40
70366;DHT22;57787;48.216;12.396;2023-02-15T03:31:36;-0.80;89.20
70366;DHT22;57787;48.216;12.396;2023-02-15T03:34:07;-0.80;89.00
70366;DHT22;57787;48.216;12.396;2023-02-15T03:39:10;-0.90;89.30
70366;DHT22;57787;48.216;12.396;2023-02-15T03:41:41;-0.90;89.40
70366;DHT22;57787;48.216;12.396;2023-02-15T03:44:11;-0.90;89.40
70366;DHT22;57787;48.216;12.396;2023-02-15T03:49:15;-0.80;89.40
70366;DHT22;57787;48.216;12.396;2023-02-15T03:51:48;-0.80;89.70
70366;DHT22;57787;48.216;12.396;2023-02-15T03:54:26;-0.80;89.70
70366;DHT22;57787;48.216;12.396;2023-02-15T03:57:19;-0.80;89.80
70366;DHT22;57787;48.216;12.396;2023-02-15T04:00:21;-0.80;89.70
70366;DHT22;57787;48.216;12.396;2023-02-15T04:05:43;-0.80;89.60
70366;DHT22;57787;48.216;12.396;2023-02-15T04:08:11;-0.80;89.60
70366;DHT22;57787;48.216;12.396;2023-02-15T04:10:39;-0.80;89.50
70366;DHT22;57787;48.216;12.396;2023-02-15T04:13:24;-0.80;89.40
70366;DHT22;57787;48.216;12.396;2023-02-15T04:15:53;-0.90;89.40
70366;DHT22;57787;48.216;12.396;2023-02-15T04:18:41;-0.90;89.30
70366;DHT22;57787;48.216;12.396;2023-02-15T04:21:31;-0.90;89.20
70366;DHT22;57787;48.216;12.396;2023-02-15T04:24:17;-0.90;89.40
70366;DHT22;57787;48.216;12.396;2023-02-15T04:27:04;-0.90;89.30
70366;DHT22;57787;48.216;12.396;2023-02-15T04:29:32;-0.90;89.30
70366;DHT22;57787;48.216;12.396;2023-02-15T04:32:00;-0.90;89.40
70366;DHT22;57787;48.216;12.396;2023-02-15T04:34:30;-0.90;89.40
70366;DHT22;57787;48.216;12.396;2023-02-15T04:36:57;-1.00;88.90
70366;DHT22;57787;48.216;12.396;2023-02-15T04:39:25;-1.00;88.90
70366;DHT22;57787;48.216;12.396;2023-02-15T04:41:53;-1.10;89.10
70366;DHT22;57787;48.216;12.396;2023-02-15T04:44:21;-1.10;89.20
70366;DHT22;57787;48.216;12.396;2023-02-15T04:46:51;-1.10;89.40
70366;DHT22;57787;48.216;12.396;2023-02-15T04:49:19;-1.10;89.50
70366;DHT22;57787;48.216;12.396;2023-02-15T04:51:47;-1.00;89.50
70366;DHT22;57787;48.216;12.396;2023-02-15T04:54:14;-1.10;89.40
70366;DHT22;57787;48.216;12.396;2023-02-15T04:56:42;-1.10;89.40
70366;DHT22;57787;48.216;12.396;2023-02-15T04:59:10;-1.10;89.50
70366;DHT22;57787;48.216;12.396;2023-02-15T05:01:38;-1.10;89.50
70366;DHT22;57787;48.216;12.396;2023-02-15T05:04:06;-1.10;89.70
70366;DHT22;57787;48.216;12.396;2023-02-15T05:06:34;-1.10;89.80
70366;DHT22;57787;48.216;12.396;2023-02-15T05:09:04;-1.10;89.60
70366;DHT22;57787;48.216;12.396;2023-02-15T05:11:32;-1.10;89.70
70366;DHT22;57787;48.216;12.396;2023-02-15T05:14:00;-1.10;89.60
70366;DHT22;57787;48.216;12.396;2023-02-15T05:16:27;-1.20;89.60
70366;DHT22;57787;48.216;12.396;2023-02-15T05:18:55;-1.10;89.70
70366;DHT22;57787;48.216;12.396;2023-02-15T05:21:22;-1.10;89.80
70366;DHT22;57787;48.216;12.396;2023-02-15T05:23:50;-1.10;89.70
70366;DHT22;57787;48.216;12.396;2023-02-15T05:26:19;-1.10;89.70
70366;DHT22;57787;48.216;12.396;2023-02-15T05:29:06;-1.10;89.30
70366;DHT22;57787;48.216;12.396;2023-02-15T05:31:34;-1.10;89.70
70366;DHT22;57787;48.216;12.396;2023-02-15T05:34:02;-1.10;89.40
70366;DHT22;57787;48.216;12.396;2023-02-15T05:36:30;-1.10;89.40
70366;DHT22;57787;48.216;12.396;2023-02-15T05:38:58;-1.10;89.40
70366;DHT22;57787;48.216;12.396;2023-02-15T05:41:26;-1.10;89.50
70366;DHT22;57787;48.216;12.396;2023-02-15T05:43:54;-1.10;89.50
70366;DHT22;57787;48.216;12.396;2023-02-15T05:46:22;-1.20;89.50
70366;DHT22;57787;48.216;12.396;2023-02-15T05:48:50;-1.20;89.60
70366;DHT22;57787;48.216;12.396;2023-02-15T05:51:18;-1.20;89.50
70366;DHT22;57787;48.216;12.396;2023-02-15T05:53:45;-1.10;89.60
70366;DHT22;57787;48.216;12.396;2023-02-15T05:56:13;-1.10;89.70
70366;DHT22;57787;48.216;12.396;2023-02-15T05:58:48;-1.10;89.50
70366;DHT22;57787;48.216;12.396;2023-02-15T06:01:17;-1.10;89.80
70366;DHT22;57787;48.216;12.396;2023-02-15T06:03:45;-1.10;89.80
70366;DHT22;57787;48.216;12.396;2023-02-15T06:06:16;-1.10;89.60
70366;DHT22;57787;48.216;12.396;2023-02-15T06:08:44;-1.10;89.70
70366;DHT22;57787;48.216;12.396;2023-02-15T06:11:12;-1.10;89.70
70366;DHT22;57787;48.216;12.396;2023-02-15T06:13:40;-1.10;89.70
70366;DHT22;57787;48.216;12.396;2023-02-15T06:16:08;-1.00;89.70
70366;DHT22;57787;48.216;12.396;2023-02-15T06:18:35;-1.00;89.70
70366;DHT22;57787;48.216;12.396;2023-02-15T06:21:03;-1.00;89.90
70366;DHT22;57787;48.216;12.396;2023-02-15T06:23:31;-1.00;89.80
70366;DHT22;57787;48.216;12.396;2023-02-15T06:25:58;-1.00;89.90
70366;DHT22;57787;48.216;12.396;2023-02-15T06:28:28;-1.00;90.00
70366;DHT22;57787;48.216;12.396;2023-02-15T06:30:56;-1.00;89.90
70366;DHT22;57787;48.216;12.396;2023-02-15T06:33:24;-0.90;89.90
70366;DHT22;57787;48.216;12.396;2023-02-15T06:35:53;-0.90;89.90
70366;DHT22;57787;48.216;12.396;2023-02-15T06:38:21;-0.90;89.90
70366;DHT22;57787;48.216;12.396;2023-02-15T06:40:48;-0.90;90.10
70366;DHT22;57787;48.216;12.396;2023-02-15T06:43:16;-0.90;89.90
70366;DHT22;57787;48.216;12.396;2023-02-15T06:45:44;-0.80;90.00
70366;DHT22;57787;48.216;12.396;2023-02-15T06:48:14;-0.90;89.90
70366;DHT22;57787;48.216;12.396;2023-02-15T06:50:42;-0.80;89.70
70366;DHT22;57787;48.216;12.396;2023-02-15T06:53:13;-0.80;89.40
70366;DHT22;57787;48.216;12.396;2023-02-15T06:55:42;-0.80;89.40
70366;DHT22;57787;48.216;12.396;2023-02-15T06:58:09;-0.80;89.20
70366;DHT22;57787;48.216;12.396;2023-02-15T07:00:40;-0.80;89.30
70366;DHT22;57787;48.216;12.396;2023-02-15T07:03:08;-0.70;89.40
70366;DHT22;57787;48.216;12.396;2023-02-15T07:05:37;-0.80;89.30
70366;DHT22;57787;48.216;12.396;2023-02-15T07:08:05;-0.70;89.30
70366;DHT22;57787;48.216;12.396;2023-02-15T07:10:33;-0.70;89.20
70366;DHT22;57787;48.216;12.396;2023-02-15T07:13:00;-0.70;89.20
70366;DHT22;57787;48.216;12.396;2023-02-15T07:15:33;-0.70;89.20
70366;DHT22;57787;48.216;12.396;2023-02-15T07:18:06;-0.60;89.30
70366;DHT22;57787;48.216;12.396;2023-02-15T07:20:36;-0.60;88.90
70366;DHT22;57787;48.216;12.396;2023-02-15T07:23:07;-0.60;89.10
70366;DHT22;57787;48.216;12.396;2023-02-15T07:25:35;-0.60;88.90
70366;DHT22;57787;48.216;12.396;2023-02-15T07:28:04;-0.60;89.00
70366;DHT22;57787;48.216;12.396;2023-02-15T07:30:32;-0.50;89.00
70366;DHT22;57787;48.216;12.396;2023-02-15T07:33:03;-0.40;88.60
70366;DHT22;57787;48.216;12.396;2023-02-15T07:35:50;-0.40;88.50
70366;DHT22;57787;48.216;12.396;2023-02-15T07:38:18;-0.40;88.50
70366;DHT22;57787;48.216;12.396;2023-02-15T07:40:46;-0.40;88.40
70366;DHT22;57787;48.216;12.396;2023-02-15T07:43:14;-0.30;88.10
70366;DHT22;57787;48.216;12.396;2023-02-15T07:45:45;-0.30;88.20
70366;DHT22;57787;48.216;12.396;2023-02-15T07:48:13;-0.20;88.50
70366;DHT22;57787;48.216;12.396;2023-02-15T07:50:41;-0.20;88.10
70366;DHT22;57787;48.216;12.396;2023-02-15T07:53:08;-0.20;87.90
70366;DHT22;57787;48.216;12.396;2023-02-15T07:55:36;-0.10;87.80
70366;DHT22;57787;48.216;12.396;2023-02-15T07:58:04;-0.10;87.60
70366;DHT22;57787;48.216;12.396;2023-02-15T08:00:33;-0.10;87.40
70366;DHT22;57787;48.216;12.396;2023-02-15T08:03:24;0.00;87.60
70366;DHT22;57787;48.216;12.396;2023-02-15T08:06:04;0.00;87.60
70366;DHT22;57787;48.216;12.396;2023-02-15T08:08:36;0.00;87.00
70366;DHT22;57787;48.216;12.396;2023-02-15T08:14:15;0.10;86.80
70366;DHT22;57787;48.216;12.396;2023-02-15T08:16:45;0.10;86.60
70366;DHT22;57787;48.216;12.396;2023-02-15T08:19:21;0.20;86.30
70366;DHT22;57787;48.216;12.396;2023-02-15T08:21:54;0.20;85.70
70366;DHT22;57787;48.216;12.396;2023-02-15T08:24:27;0.20;85.20
70366;DHT22;57787;48.216;12.396;2023-02-15T08:26:57;0.20;85.80
70366;DHT22;57787;48.216;12.396;2023-02-15T08:29:26;0.30;85.60
70366;DHT22;57787;48.216;12.396;2023-02-15T08:32:04;0.30;86.00
70366;DHT22;57787;48.216;12.396;2023-02-15T08:34:34;0.30;85.60
70366;DHT22;57787;48.216;12.396;2023-02-15T08:37:05;0.40;85.60
70366;DHT22;57787;48.216;12.396;2023-02-15T08:39:33;0.50;85.70
70366;DHT22;57787;48.216;12.396;2023-02-15T08:42:01;0.60;85.50
70366;DHT22;57787;48.216;12.396;2023-02-15T08:44:29;0.60;84.80
70366;DHT22;57787;48.216;12.396;2023-02-15T08:46:58;0.70;84.70
70366;DHT22;57787;48.216;12.396;2023-02-15T08:49:33;0.70;84.60
70366;DHT22;57787;48.216;12.396;2023-02-15T08:52:09;0.70;84.50
70366;DHT22;57787;48.216;12.396;2023-02-15T08:54:37;0.90;85.40
70366;DHT22;57787;48.216;12.396;2023-02-15T08:57:05;0.90;85.00
70366;DHT22;57787;48.216;12.396;2023-02-15T08:59:36;1.00;84.60
70366;DHT22;57787;48.216;12.396;2023-02-15T09:02:12;1.10;84.10
70366;DHT22;57787;48.216;12.396;2023-02-15T09:04:48;1.10;83.90
70366;DHT22;57787;48.216;12.396;2023-02-15T09:07:17;1.10;83.50
70366;DHT22;57787;48.216;12.396;2023-02-15T09:09:46;1.20;83.60
70366;DHT22;57787;48.216;12.396;2023-02-15T09:12:15;1.20;83.20
70366;DHT22;57787;48.216;12.396;2023-02-15T09:14:45;1.20;82.80
70366;DHT22;57787;48.216;12.396;2023-02-15T09:17:14;1.30;83.00
70366;DHT22;57787;48.216;12.396;2023-02-15T09:19:42;1.30;83.10
70366;DHT22;57787;48.216;12.396;2023-02-15T09:22:10;1.30;82.00
70366;DHT22;57787;48.216;12.396;2023-02-15T09:24:38;1.30;82.20
70366;DHT22;57787;48.216;12.396;2023-02-15T09:27:08;1.30;82.70
70366;DHT22;57787;48.216;12.396;2023-02-15T09:29:36;1.30;82.70
70366;DHT22;57787;48.216;12.396;2023-02-15T09:32:04;1.40;82.60
70366;DHT22;57787;48.216;12.396;2023-02-15T09:34:32;1.50;82.60
70366;DHT22;57787;48.216;12.396;2023-02-15T09:37:01;1.60;82.50
70366;DHT22;57787;48.216;12.396;2023-02-15T09:39:30;1.60;82.20
70366;DHT22;57787;48.216;12.396;2023-02-15T09:42:07;1.60;82.60
70366;DHT22;57787;48.216;12.396;2023-02-15T09:44:50;1.60;81.90
70366;DHT22;57787;48.216;12.396;2023-02-15T09:50:14;1.80;81.60
70366;DHT22;57787;48.216;12.396;2023-02-15T09:55:48;1.90;82.00
70366;DHT22;57787;48.216;12.396;2023-02-15T10:09:03;2.10;81.10
70366;DHT22;57787;48.216;12.396;2023-02-15T10:11:54;2.20;81.50
70366;DHT22;57787;48.216;12.396;2023-02-15T10:20:06;2.30;81.40
70366;DHT22;57787;48.216;12.396;2023-02-15T10:27:45;2.60;81.20
70366;DHT22;57787;48.216;12.396;2023-02-15T10:30:14;2.60;81.00
70366;DHT22;57787;48.216;12.396;2023-02-15T10:35:20;2.60;80.40
70366;DHT22;57787;48.216;12.396;2023-02-15T10:38:03;2.70;81.60
70366;DHT22;57787;48.216;12.396;2023-02-15T10:40:46;2.70;80.60
70366;DHT22;57787;48.216;12.396;2023-02-15T10:48:47;2.90;81.50
70366;DHT22;57787;48.216;12.396;2023-02-15T10:51:36;2.90;80.80
70366;DHT22;57787;48.216;12.396;2023-02-15T10:54:09;2.90;80.30
70366;DHT22;57787;48.216;12.396;2023-02-15T10:56:53;2.90;80.40
70366;DHT22;57787;48.216;12.396;2023-02-15T11:01:53;3.10;81.40
70366;DHT22;57787;48.216;12.396;2023-02-15T11:04:29;3.20;81.20
70366;DHT22;57787;48.216;12.396;2023-02-15T11:07:06;3.30;81.20
70366;DHT22;57787;48.216;12.396;2023-02-15T11:09:37;3.40;81.30
70366;DHT22;57787;48.216;12.396;2023-02-15T11:12:13;3.50;79.90
70366;DHT22;57787;48.216;12.396;2023-02-15T11:14:53;3.50;78.60
70366;DHT22;57787;48.216;12.396;2023-02-15T11:17:30;3.50;79.70
70366;DHT22;57787;48.216;12.396;2023-02-15T11:20:08;3.50;78.20
70366;DHT22;57787;48.216;12.396;2023-02-15T11:22:37;3.50;79.40
70366;DHT22;57787;48.216;12.396;2023-02-15T11:25:14;3.60;78.80
70366;DHT22;57787;48.216;12.396;2023-02-15T11:27:46;3.60;78.60
70366;DHT22;57787;48.216;12.396;2023-02-15T11:30:22;3.50;79.60
70366;DHT22;57787;48.216;12.396;2023-02-15T11:32:57;3.70;79.60
70366;DHT22;57787;48.216;12.396;2023-02-15T11:35:27;3.80;80.90
70366;DHT22;57787;48.216;12.396;2023-02-15T11:38:17;3.90;80.20
70366;DHT22;57787;48.216;12.396;2023-02-15T11:40:50;3.90;79.00
70366;DHT22;57787;48.216;12.396;2023-02-15T11:45:49;3.90;78.40
70366;DHT22;57787;48.216;12.396;2023-02-15T11:48:19;3.90;78.50
70366;DHT22;57787;48.216;12.396;2023-02-15T11:50:47;3.80;77.60
70366;DHT22;57787;48.216;12.396;2023-02-15T11:53:17;3.90;77.50
70366;DHT22;57787;48.216;12.396;2023-02-15T11:55:46;3.80;78.00
70366;DHT22;57787;48.216;12.396;2023-02-15T11:58:29;3.70;76.70
70366;DHT22;57787;48.216;12.396;2023-02-15T12:01:02;3.50;77.20
70366;DHT22;57787;48.216;12.396;2023-02-15T12:06:28;3.50;79.50
70366;DHT22;57787;48.216;12.396;2023-02-15T12:09:06;3.40;78.40
70366;DHT22;57787;48.216;12.396;2023-02-15T12:11:41;3.40;79.20
70366;DHT22;57787;48.216;12.396;2023-02-15T12:14:12;3.40;78.80
70366;DHT22;57787;48.216;12.396;2023-02-15T12:16:44;3.40;80.20
70366;DHT22;57787;48.216;12.396;2023-02-15T12:21:49;3.40;78.60
70366;DHT22;57787;48.216;12.396;2023-02-15T12:24:24;3.30;78.80
70366;DHT22;57787;48.216;12.396;2023-02-15T12:26:56;3.40;80.00
70366;DHT22;57787;48.216;12.396;2023-02-15T12:29:25;3.50;79.80
70366;DHT22;57787;48.216;12.396;2023-02-15T12:31:54;3.40;80.00
70366;DHT22;57787;48.216;12.396;2023-02-15T12:34:23;3.50;78.90
70366;DHT22;57787;48.216;12.396;2023-02-15T12:36:55;3.40;78.00
70366;DHT22;57787;48.216;12.396;2023-02-15T12:39:28;3.30;79.20
70366;DHT22;57787;48.216;12.396;2023-02-15T12:41:57;3.50;80.10
70366;DHT22;57787;48.216;12.396;2023-02-15T12:44:27;3.50;79.30
70366;DHT22;57787;48.216;12.396;2023-02-15T12:46:58;3.60;79.70
70366;DHT22;57787;48.216;12.396;2023-02-15T12:49:30;3.70;79.00
70366;DHT22;57787;48.216;12.396;2023-02-15T12:52:01;3.70;79.30
70366;DHT22;57787;48.216;12.396;2023-02-15T12:54:33;3.80;79.50
70366;DHT22;57787;48.216;12.396;2023-02-15T13:00:06;3.80;78.80
70366;DHT22;57787;48.216;12.396;2023-02-15T13:02:53;3.80;78.50
70366;DHT22;57787;48.216;12.396;2023-02-15T13:07:53;3.80;78.60
70366;DHT22;57787;48.216;12.396;2023-02-15T13:12:52;3.80;79.40
70366;DHT22;57787;48.216;12.396;2023-02-15T13:15:25;3.80;78.40
70366;DHT22;57787;48.216;12.396;2023-02-15T13:17:54;3.70;79.00
70366;DHT22;57787;48.216;12.396;2023-02-15T13:20:23;3.70;79.00
70366;DHT22;57787;48.216;12.396;2023-02-15T13:22:54;3.70;78.40
70366;DHT22;57787;48.216;12.396;2023-02-15T13:25:24;3.70;78.60
70366;DHT22;57787;48.216;12.396;2023-02-15T13:27:53;3.70;79.70
70366;DHT22;57787;48.216;12.396;2023-02-15T13:30:42;3.60;78.90
70366;DHT22;57787;48.216;12.396;2023-02-15T13:33:19;3.70;79.50
70366;DHT22;57787;48.216;12.396;2023-02-15T13:35:52;3.60;78.90
70366;DHT22;57787;48.216;12.396;2023-02-15T13:41:04;3.70;79.50
70366;DHT22;57787;48.216;12.396;2023-02-15T13:43:50;3.90;80.10
70366;DHT22;57787;48.216;12.396;2023-02-15T13:47:05;4.00;80.20
70366;DHT22;57787;48.216;12.396;2023-02-15T13:52:06;3.90;78.30
70366;DHT22;57787;48.216;12.396;2023-02-15T13:57:16;3.80;79.50
70366;DHT22;57787;48.216;12.396;2023-02-15T14:15:33;3.70;80.30
70366;DHT22;57787;48.216;12.396;2023-02-15T14:18:18;3.70;79.90
70366;DHT22;57787;48.216;12.396;2023-02-15T14:23:43;3.90;80.80
70366;DHT22;57787;48.216;12.396;2023-02-15T14:28:50;3.90;79.10
70366;DHT22;57787;48.216;12.396;2023-02-15T14:31:24;4.00;79.80
70366;DHT22;57787;48.216;12.396;2023-02-15T14:33:55;4.00;79.70
70366;DHT22;57787;48.216;12.396;2023-02-15T14:36:24;4.00;78.90
70366;DHT22;57787;48.216;12.396;2023-02-15T14:41:37;3.90;78.70
70366;DHT22;57787;48.216;12.396;2023-02-15T14:44:15;3.80;79.10
70366;DHT22;57787;48.216;12.396;2023-02-15T14:49:30;3.70;79.90
70366;DHT22;57787;48.216;12.396;2023-02-15T14:51:59;3.70;80.50
70366;DHT22;57787;48.216;12.396;2023-02-15T14:59:38;3.70;79.80
70366;DHT22;57787;48.216;12.396;2023-02-15T15:04:36;3.70;79.80
70366;DHT22;57787;48.216;12.396;2023-02-15T15:09:39;3.50;80.00
70366;DHT22;57787;48.216;12.396;2023-02-15T15:12:15;3.40;80.10
70366;DHT22;57787;48.216;12.396;2023-02-15T15:14:44;3.30;80.30
70366;DHT22;57787;48.216;12.396;2023-02-15T15:17:42;3.10;80.60
70366;DHT22;57787;48.216;12.396;2023-02-15T15:20:14;3.00;80.70
70366;DHT22;57787;48.216;12.396;2023-02-15T15:25:44;2.80;81.50
70366;DHT22;57787;48.216;12.396;2023-02-15T15:33:48;2.40;83.30
70366;DHT22;57787;48.216;12.396;2023-02-15T15:36:28;2.40;83.30
70366;DHT22;57787;48.216;12.396;2023-02-15T15:42:04;2.40;83.40
70366;DHT22;57787;48.216;12.396;2023-02-15T15:49:57;2.10;84.10
70366;DHT22;57787;48.216;12.396;2023-02-15T15:52:26;2.00;84.70
70366;DHT22;57787;48.216;12.396;2023-02-15T15:54:57;2.10;84.90
70366;DHT22;57787;48.216;12.396;2023-02-15T15:57:39;2.00;84.50
70366;DHT22;57787;48.216;12.396;2023-02-15T16:03:12;1.90;84.50
70366;DHT22;57787;48.216;12.396;2023-02-15T16:05:41;1.90;84.60
70366;DHT22;57787;48.216;12.396;2023-02-15T16:08:08;1.80;84.60
70366;DHT22;57787;48.216;12.396;2023-02-15T16:10:35;1.80;84.90
70366;DHT22;57787;48.216;12.396;2023-02-15T16:13:05;1.70;85.00
70366;DHT22;57787;48.216;12.396;2023-02-15T16:15:42;1.60;85.00
70366;DHT22;57787;48.216;12.396;2023-02-15T16:18:13;1.50;85.10
70366;DHT22;57787;48.216;12.396;2023-02-15T16:20:42;1.60;85.50
70366;DHT22;57787;48.216;12.396;2023-02-15T16:25:58;1.50;85.40
70366;DHT22;57787;48.216;12.396;2023-02-15T16:28:29;1.50;85.80
70366;DHT22;57787;48.216;12.396;2023-02-15T16:31:07;1.50;86.10
70366;DHT22;57787;48.216;12.396;2023-02-15T16:33:40;1.50;86.30
70366;DHT22;57787;48.216;12.396;2023-02-15T16:36:26;1.50;86.50
70366;DHT22;57787;48.216;12.396;2023-02-15T16:41:23;1.50;86.60
70366;DHT22;57787;48.216;12.396;2023-02-15T16:43:51;1.40;86.40
70366;DHT22;57787;48.216;12.396;2023-02-15T16:46:30;1.40;86.50
70366;DHT22;57787;48.216;12.396;2023-02-15T16:49:00;1.40;86.50
70366;DHT22;57787;48.216;12.396;2023-02-15T16:51:31;1.30;86.50
70366;DHT22;57787;48.216;12.396;2023-02-15T16:54:18;1.30;86.80
70366;DHT22;57787;48.216;12.396;2023-02-15T16:56:46;1.30;87.20
70366;DHT22;57787;48.216;12.396;2023-02-15T17:02:03;1.30;87.50
70366;DHT22;57787;48.216;12.396;2023-02-15T17:04:31;1.30;87.20
70366;DHT22;57787;48.216;12.396;2023-02-15T17:07:00;1.30;87.40
70366;DHT22;57787;48.216;12.396;2023-02-15T17:09:31;1.30;87.40
70366;DHT22;57787;48.216;12.396;2023-02-15T17:11:59;1.30;87.30
70366;DHT22;57787;48.216;12.396;2023-02-15T17:14:30;1.30;87.40
70366;DHT22;57787;48.216;12.396;2023-02-15T17:16:59;1.20;87.20
70366;DHT22;57787;48.216;12.396;2023-02-15T17:19:29;1.20;87.20
70366;DHT22;57787;48.216;12.396;2023-02-15T17:22:01;1.20;87.40
70366;DHT22;57787;48.216;12.396;2023-02-15T17:24:33;1.10;87.70
70366;DHT22;57787;48.216;12.396;2023-02-15T17:27:11;1.10;87.60
70366;DHT22;57787;48.216;12.396;2023-02-15T17:29:40;1.10;87.80
70366;DHT22;57787;48.216;12.396;2023-02-15T17:32:16;1.10;88.10
70366;DHT22;57787;48.216;12.396;2023-02-15T17:34:49;1.10;88.00
70366;DHT22;57787;48.216;12.396;2023-02-15T17:37:27;1.10;88.00
70366;DHT22;57787;48.216;12.396;2023-02-15T17:39:57;1.10;87.90
70366;DHT22;57787;48.216;12.396;2023-02-15T17:42:25;1.10;88.10
70366;DHT22;57787;48.216;12.396;2023-02-15T17:44:53;1.10;88.00
70366;DHT22;57787;48.216;12.396;2023-02-15T17:47:21;1.10;88.10
70366;DHT22;57787;48.216;12.396;2023-02-15T17:49:51;1.10;88.30
70366;DHT22;57787;48.216;12.396;2023-02-15T17:52:19;1.10;88.30
70366;DHT22;57787;48.216;12.396;2023-02-15T17:54:48;1.10;88.20
70366;DHT22;57787;48.216;12.396;2023-02-15T17:57:37;1.10;88.20
70366;DHT22;57787;48.216;12.396;2023-02-15T18:00:06;1.00;88.10
70366;DHT22;57787;48.216;12.396;2023-02-15T18:02:53;1.00;88.20
70366;DHT22;57787;48.216;12.396;2023-02-15T18:05:39;1.00;88.50
70366;DHT22;57787;48.216;12.396;2023-02-15T18:08:26;1.00;88.40
70366;DHT22;57787;48.216;12.396;2023-02-15T18:11:13;1.00;88.10
70366;DHT22;57787;48.216;12.396;2023-02-15T18:13:59;1.00;88.30
70366;DHT22;57787;48.216;12.396;2023-02-15T18:16:31;1.00;88.20
70366;DHT22;57787;48.216;12.396;2023-02-15T18:18:59;1.00;88.10
70366;DHT22;57787;48.216;12.396;2023-02-15T18:21:28;1.00;88.20
70366;DHT22;57787;48.216;12.396;2023-02-15T18:23:56;0.90;88.20
70366;DHT22;57787;48.216;12.396;2023-02-15T18:29:53;0.80;87.70